Time;durP1;ratioP1;P1;durP2;ratioP2;P2;SDS_P1;SDS_P2;PMS_P1;PMS_P2;Temp;Humidity;BMP_temperature;BMP_pressure;BME280_temperature;BME280_humidity;BME280_pressure;Samples;Min_cycle;Max_cycle;Signal;HPM_P1;HPM_P2
2022/03/27 00:00:34;;;;;;;22.45;11.6;;;;;;;2.77;37.94434;96219.56;;;;
2022/03/27 00:01:35;;;;;;;22.45;11.6;;;;;;;2.77;37.94434;96219.56;;;;
2022/03/27 00:02:35;;;;;;;22.45;11.6;;;;;;;2.77;37.94434;96219.56;;;;
2022/03/27 00:03:36;;;;;;;22.45;11.6;;;;;;;2.77;37.94434;96219.56;;;;
2022/03/27 00:04:36;;;;;;;22.45;11.6;;;;;;;2.77;37.94434;96219.56;;;;
2022/03/27 00:05:37;;;;;;;20.3;11.95;;;;;;;2.41;38.58008;96212.84;;;;
2022/03/27 00:06:37;;;;;;;20.3;11.95;;;;;;;2.41;38.58008;96212.84;;;;
2022/03/27 00:07:38;;;;;;;20.3;11.95;;;;;;;2.41;38.58008;96212.84;;;;
2022/03/27 00:08:39;;;;;;;20.3;11.95;;;;;;;2.41;38.58008;96212.84;;;;
2022/03/27 00:09:39;;;;;;;20.3;11.95;;;;;;;2.41;38.58008;96212.84;;;;
2022/03/27 00:11:45;;;;;;;20.3;11.95;;;;;;;2.41;38.58008;96212.84;;;;
2022/03/27 00:12:45;;;;;;;20.3;11.95;;;;;;;2.41;38.58008;96212.84;;;;
2022/03/27 00:13:46;;;;;;;20.3;11.95;;;;;;;2.41;38.58008;96212.84;;;;
2022/03/27 00:14:47;;;;;;;20.3;11.95;;;;;;;2.41;38.58008;96212.84;;;;
2022/03/27 00:15:47;;;;;;;22.6;12.45;;;;;;;2.3;38.79297;96208.65;;;;
2022/03/27 00:16:48;;;;;;;22.6;12.45;;;;;;;2.3;38.79297;96208.65;;;;
2022/03/27 00:17:48;;;;;;;22.6;12.45;;;;;;;2.3;38.79297;96208.65;;;;
2022/03/27 00:18:49;;;;;;;22.6;12.45;;;;;;;2.3;38.79297;96208.65;;;;
2022/03/27 00:19:50;;;;;;;22.6;12.45;;;;;;;2.3;38.79297;96208.65;;;;
2022/03/27 00:20:50;;;;;;;22.6;12.45;;;;;;;2.3;38.79297;96208.65;;;;
2022/03/27 00:21:51;;;;;;;22.6;12.45;;;;;;;2.3;38.79297;96208.65;;;;
2022/03/27 00:22:54;;;;;;;22.6;12.45;;;;;;;2.3;38.79297;96208.65;;;;
2022/03/27 00:23:54;;;;;;;22.6;12.45;;;;;;;2.3;38.79297;96208.65;;;;
2022/03/27 00:24:55;;;;;;;22.6;12.45;;;;;;;2.3;38.79297;96208.65;;;;
2022/03/27 00:25:55;;;;;;;22.6;12.45;;;;;;;2.3;38.79297;96208.65;;;;
2022/03/27 00:26:56;;;;;;;25.6;12.6;;;;;;;2.15;38.95996;96202.26;;;;
2022/03/27 00:27:57;;;;;;;25.6;12.6;;;;;;;2.15;38.95996;96202.26;;;;
2022/03/27 00:28:58;;;;;;;25.6;12.6;;;;;;;2.15;38.95996;96202.26;;;;
2022/03/27 00:29:58;;;;;;;25.6;12.6;;;;;;;2.15;38.95996;96202.26;;;;
2022/03/27 00:31:00;;;;;;;25.6;12.6;;;;;;;2.15;38.95996;96202.26;;;;
2022/03/27 00:32:01;;;;;;;25.6;12.6;;;;;;;2.15;38.95996;96202.26;;;;
2022/03/27 00:33:02;;;;;;;25.6;12.6;;;;;;;2.15;38.95996;96202.26;;;;
2022/03/27 00:34:03;;;;;;;25.6;12.6;;;;;;;2.15;38.95996;96202.26;;;;
2022/03/27 00:35:06;;;;;;;25.6;12.6;;;;;;;2.15;38.95996;96202.26;;;;
2022/03/27 00:36:07;;;;;;;25.6;12.6;;;;;;;2.15;38.95996;96202.26;;;;
2022/03/27 00:37:09;;;;;;;23.6;12.5;;;;;;;1.99;39.19922;96203.97;;;;
2022/03/27 00:38:09;;;;;;;23.6;12.5;;;;;;;1.99;39.19922;96203.97;;;;
2022/03/27 00:39:10;;;;;;;23.6;12.5;;;;;;;1.99;39.19922;96203.97;;;;
2022/03/27 00:40:14;;;;;;;23.6;12.5;;;;;;;1.99;39.19922;96203.97;;;;
2022/03/27 00:41:15;;;;;;;23.6;12.5;;;;;;;1.99;39.19922;96203.97;;;;
2022/03/27 00:42:16;;;;;;;23.6;12.5;;;;;;;1.99;39.19922;96203.97;;;;
2022/03/27 00:43:17;;;;;;;23.6;12.5;;;;;;;1.99;39.19922;96203.97;;;;
2022/03/27 00:44:18;;;;;;;23.6;12.5;;;;;;;1.99;39.19922;96203.97;;;;
2022/03/27 00:45:18;;;;;;;23.6;12.5;;;;;;;1.99;39.19922;96203.97;;;;
2022/03/27 00:46:19;;;;;;;23.6;12.5;;;;;;;1.99;39.19922;96203.97;;;;
2022/03/27 00:47:19;;;;;;;23.6;12.5;;;;;;;1.99;39.19922;96203.97;;;;
2022/03/27 00:48:20;;;;;;;23.15;12.75;;;;;;;1.85;39.42969;96205.5;;;;
2022/03/27 00:49:21;;;;;;;23.15;12.75;;;;;;;1.85;39.42969;96205.5;;;;
2022/03/27 00:50:22;;;;;;;23.15;12.75;;;;;;;1.85;39.42969;96205.5;;;;
2022/03/27 00:51:22;;;;;;;23.15;12.75;;;;;;;1.85;39.42969;96205.5;;;;
2022/03/27 00:52:23;;;;;;;23.15;12.75;;;;;;;1.85;39.42969;96205.5;;;;
2022/03/27 00:53:23;;;;;;;23.15;12.75;;;;;;;1.85;39.42969;96205.5;;;;
2022/03/27 00:54:24;;;;;;;23.15;12.75;;;;;;;1.85;39.42969;96205.5;;;;
2022/03/27 00:55:25;;;;;;;23.15;12.75;;;;;;;1.85;39.42969;96205.5;;;;
2022/03/27 00:56:25;;;;;;;23.15;12.75;;;;;;;1.85;39.42969;96205.5;;;;
2022/03/27 00:57:26;;;;;;;23.15;12.75;;;;;;;1.85;39.42969;96205.5;;;;
2022/03/27 00:58:27;;;;;;;23.15;12.75;;;;;;;1.85;39.42969;96205.5;;;;
2022/03/27 00:59:27;;;;;;;23.15;12.75;;;;;;;1.85;39.42969;96205.5;;;;
2022/03/27 01:00:28;;;;;;;23.15;12.75;;;;;;;1.85;39.42969;96205.5;;;;
2022/03/27 01:01:44;;;;;;;23.15;12.75;;;;;;;1.85;39.42969;96205.5;;;;
2022/03/27 01:02:44;;;;;;;23.15;12.75;;;;;;;1.85;39.42969;96205.5;;;;
2022/03/27 01:03:47;;;;;;;23.15;12.75;;;;;;;1.85;39.42969;96205.5;;;;
2022/03/27 01:04:48;;;;;;;23.15;12.75;;;;;;;1.85;39.42969;96205.5;;;;
2022/03/27 01:05:48;;;;;;;23.15;12.75;;;;;;;1.85;39.42969;96205.5;;;;
2022/03/27 01:06:49;;;;;;;23.15;12.75;;;;;;;1.85;39.42969;96205.5;;;;
2022/03/27 01:07:49;;;;;;;23.15;12.75;;;;;;;1.85;39.42969;96205.5;;;;
2022/03/27 01:09:57;;;;;;;23;12.4;;;;;;;1.46;39.96582;96211.77;;;;
2022/03/27 01:10:57;;;;;;;23;12.4;;;;;;;1.46;39.96582;96211.77;;;;
2022/03/27 01:11:58;;;;;;;23;12.4;;;;;;;1.46;39.96582;96211.77;;;;
2022/03/27 01:13:11;;;;;;;23;12.4;;;;;;;1.46;39.96582;96211.77;;;;
2022/03/27 01:14:16;;;;;;;23;12.4;;;;;;;1.46;39.96582;96211.77;;;;
2022/03/27 01:15:21;;;;;;;23;12.4;;;;;;;1.46;39.96582;96211.77;;;;
2022/03/27 01:16:25;;;;;;;23;12.4;;;;;;;1.46;39.96582;96211.77;;;;
2022/03/27 01:17:36;;;;;;;23;12.4;;;;;;;1.46;39.96582;96211.77;;;;
2022/03/27 01:18:36;;;;;;;23;12.4;;;;;;;1.46;39.96582;96211.77;;;;
2022/03/27 01:19:36;;;;;;;20.95;12.15;;;;;;;1.28;40.2334;96199.94;;;;
2022/03/27 01:20:40;;;;;;;20.95;12.15;;;;;;;1.28;40.2334;96199.94;;;;
2022/03/27 01:21:41;;;;;;;20.95;12.15;;;;;;;1.28;40.2334;96199.94;;;;
2022/03/27 01:22:44;;;;;;;20.95;12.15;;;;;;;1.28;40.2334;96199.94;;;;
2022/03/27 01:23:45;;;;;;;20.95;12.15;;;;;;;1.28;40.2334;96199.94;;;;
2022/03/27 01:24:45;;;;;;;20.95;12.15;;;;;;;1.28;40.2334;96199.94;;;;
2022/03/27 01:25:47;;;;;;;20.95;12.15;;;;;;;1.28;40.2334;96199.94;;;;
2022/03/27 01:26:47;;;;;;;20.95;12.15;;;;;;;1.28;40.2334;96199.94;;;;
2022/03/27 01:27:48;;;;;;;20.95;12.15;;;;;;;1.28;40.2334;96199.94;;;;
2022/03/27 01:28:49;;;;;;;20.95;12.15;;;;;;;1.28;40.2334;96199.94;;;;
2022/03/27 01:29:49;;;;;;;20.95;12.15;;;;;;;1.28;40.2334;96199.94;;;;
2022/03/27 01:30:50;;;;;;;23.15;12.25;;;;;;;1.1;40.55566;96196;;;;
2022/03/27 01:31:51;;;;;;;23.15;12.25;;;;;;;1.1;40.55566;96196;;;;
2022/03/27 01:32:53;;;;;;;23.15;12.25;;;;;;;1.1;40.55566;96196;;;;
2022/03/27 01:33:54;;;;;;;23.15;12.25;;;;;;;1.1;40.55566;96196;;;;
2022/03/27 01:34:54;;;;;;;23.15;12.25;;;;;;;1.1;40.55566;96196;;;;
2022/03/27 01:35:55;;;;;;;23.15;12.25;;;;;;;1.1;40.55566;96196;;;;
2022/03/27 01:36:55;;;;;;;23.15;12.25;;;;;;;1.1;40.55566;96196;;;;
2022/03/27 01:38:00;;;;;;;23.15;12.25;;;;;;;1.1;40.55566;96196;;;;
2022/03/27 01:39:00;;;;;;;23.15;12.25;;;;;;;1.1;40.55566;96196;;;;
2022/03/27 01:40:03;;;;;;;23.15;12.25;;;;;;;1.1;40.55566;96196;;;;
2022/03/27 01:41:06;;;;;;;22.5;12.6;;;;;;;1.09;40.7334;96187.28;;;;
2022/03/27 01:42:07;;;;;;;22.5;12.6;;;;;;;1.09;40.7334;96187.28;;;;
2022/03/27 01:43:08;;;;;;;22.5;12.6;;;;;;;1.09;40.7334;96187.28;;;;
2022/03/27 01:44:08;;;;;;;22.5;12.6;;;;;;;1.09;40.7334;96187.28;;;;
2022/03/27 01:45:11;;;;;;;22.5;12.6;;;;;;;1.09;40.7334;96187.28;;;;
2022/03/27 01:46:11;;;;;;;22.5;12.6;;;;;;;1.09;40.7334;96187.28;;;;
2022/03/27 01:47:12;;;;;;;22.5;12.6;;;;;;;1.09;40.7334;96187.28;;;;
2022/03/27 01:48:12;;;;;;;22.5;12.6;;;;;;;1.09;40.7334;96187.28;;;;
2022/03/27 01:49:13;;;;;;;22.5;12.6;;;;;;;1.09;40.7334;96187.28;;;;
2022/03/27 01:50:15;;;;;;;22.5;12.6;;;;;;;1.09;40.7334;96187.28;;;;
2022/03/27 01:51:16;;;;;;;22.5;12.6;;;;;;;1.09;40.7334;96187.28;;;;
2022/03/27 01:52:16;;;;;;;22.4;12.6;;;;;;;1.1;40.83984;96180.14;;;;
2022/03/27 01:53:17;;;;;;;22.4;12.6;;;;;;;1.1;40.83984;96180.14;;;;
2022/03/27 01:54:19;;;;;;;22.4;12.6;;;;;;;1.1;40.83984;96180.14;;;;
2022/03/27 01:55:19;;;;;;;22.4;12.6;;;;;;;1.1;40.83984;96180.14;;;;
2022/03/27 01:56:20;;;;;;;22.4;12.6;;;;;;;1.1;40.83984;96180.14;;;;
2022/03/27 01:57:20;;;;;;;22.4;12.6;;;;;;;1.1;40.83984;96180.14;;;;
2022/03/27 01:58:21;;;;;;;22.4;12.6;;;;;;;1.1;40.83984;96180.14;;;;
2022/03/27 01:59:22;;;;;;;22.4;12.6;;;;;;;1.1;40.83984;96180.14;;;;
2022/03/27 02:00:22;;;;;;;22.4;12.6;;;;;;;1.1;40.83984;96180.14;;;;
2022/03/27 02:01:23;;;;;;;22.4;12.6;;;;;;;1.1;40.83984;96180.14;;;;
2022/03/27 02:02:24;;;;;;;22.85;12.95;;;;;;;1.09;41.00879;96181.53;;;;
2022/03/27 02:03:28;;;;;;;22.85;12.95;;;;;;;1.09;41.00879;96181.53;;;;
2022/03/27 02:04:28;;;;;;;22.85;12.95;;;;;;;1.09;41.00879;96181.53;;;;
2022/03/27 02:05:31;;;;;;;22.85;12.95;;;;;;;1.09;41.00879;96181.53;;;;
2022/03/27 02:06:32;;;;;;;22.85;12.95;;;;;;;1.09;41.00879;96181.53;;;;
2022/03/27 02:07:34;;;;;;;22.85;12.95;;;;;;;1.09;41.00879;96181.53;;;;
2022/03/27 02:08:35;;;;;;;22.85;12.95;;;;;;;1.09;41.00879;96181.53;;;;
2022/03/27 02:09:36;;;;;;;22.85;12.95;;;;;;;1.09;41.00879;96181.53;;;;
2022/03/27 02:10:36;;;;;;;22.85;12.95;;;;;;;1.09;41.00879;96181.53;;;;
2022/03/27 02:11:37;;;;;;;22.85;12.95;;;;;;;1.09;41.00879;96181.53;;;;
2022/03/27 02:12:37;;;;;;;22.85;12.95;;;;;;;1.09;41.00879;96181.53;;;;
2022/03/27 02:13:38;;;;;;;22.85;12.95;;;;;;;1.09;41.00879;96181.53;;;;
2022/03/27 02:14:39;;;;;;;22.85;12.95;;;;;;;1.09;41.00879;96181.53;;;;
2022/03/27 02:15:40;;;;;;;22.85;12.95;;;;;;;1.09;41.00879;96181.53;;;;
2022/03/27 02:16:41;;;;;;;22.85;12.95;;;;;;;1.09;41.00879;96181.53;;;;
2022/03/27 02:17:41;;;;;;;22.85;12.95;;;;;;;1.09;41.00879;96181.53;;;;
2022/03/27 02:18:42;;;;;;;22.85;12.95;;;;;;;1.09;41.00879;96181.53;;;;
2022/03/27 02:19:43;;;;;;;22.85;12.95;;;;;;;1.09;41.00879;96181.53;;;;
2022/03/27 02:20:44;;;;;;;22.85;12.95;;;;;;;1.09;41.00879;96181.53;;;;
2022/03/27 02:21:45;;;;;;;22.85;12.95;;;;;;;1.09;41.00879;96181.53;;;;
2022/03/27 02:22:45;;;;;;;22.85;12.95;;;;;;;1.09;41.00879;96181.53;;;;
2022/03/27 02:23:45;;;;;;;24.3;12.8;;;;;;;0.95;41.32324;96171.37;;;;
2022/03/27 02:24:46;;;;;;;24.3;12.8;;;;;;;0.95;41.32324;96171.37;;;;
2022/03/27 02:25:47;;;;;;;24.3;12.8;;;;;;;0.95;41.32324;96171.37;;;;
2022/03/27 02:26:49;;;;;;;24.3;12.8;;;;;;;0.95;41.32324;96171.37;;;;
2022/03/27 02:27:50;;;;;;;24.3;12.8;;;;;;;0.95;41.32324;96171.37;;;;
2022/03/27 02:28:50;;;;;;;24.3;12.8;;;;;;;0.95;41.32324;96171.37;;;;
2022/03/27 02:29:51;;;;;;;24.3;12.8;;;;;;;0.95;41.32324;96171.37;;;;
2022/03/27 02:30:51;;;;;;;24.3;12.8;;;;;;;0.95;41.32324;96171.37;;;;
2022/03/27 02:31:54;;;;;;;24.3;12.8;;;;;;;0.95;41.32324;96171.37;;;;
2022/03/27 02:32:54;;;;;;;24.3;12.8;;;;;;;0.95;41.32324;96171.37;;;;
2022/03/27 02:33:55;;;;;;;24.3;12.8;;;;;;;0.95;41.32324;96171.37;;;;
2022/03/27 02:34:55;;;;;;;24;12.4;;;;;;;0.83;41.51074;96174.05;;;;
2022/03/27 02:35:56;;;;;;;24;12.4;;;;;;;0.83;41.51074;96174.05;;;;
2022/03/27 02:36:57;;;;;;;24;12.4;;;;;;;0.83;41.51074;96174.05;;;;
2022/03/27 02:37:58;;;;;;;24;12.4;;;;;;;0.83;41.51074;96174.05;;;;
2022/03/27 02:38:58;;;;;;;24;12.4;;;;;;;0.83;41.51074;96174.05;;;;
2022/03/27 02:39:59;;;;;;;24;12.4;;;;;;;0.83;41.51074;96174.05;;;;
2022/03/27 02:40:59;;;;;;;24;12.4;;;;;;;0.83;41.51074;96174.05;;;;
2022/03/27 02:42:00;;;;;;;24;12.4;;;;;;;0.83;41.51074;96174.05;;;;
2022/03/27 02:43:00;;;;;;;24;12.4;;;;;;;0.83;41.51074;96174.05;;;;
2022/03/27 02:44:01;;;;;;;24;12.4;;;;;;;0.83;41.51074;96174.05;;;;
2022/03/27 02:45:01;;;;;;;24;12.4;;;;;;;0.83;41.51074;96174.05;;;;
2022/03/27 02:46:02;;;;;;;24;12.4;;;;;;;0.83;41.51074;96174.05;;;;
2022/03/27 02:47:04;;;;;;;24;12.4;;;;;;;0.83;41.51074;96174.05;;;;
2022/03/27 02:48:05;;;;;;;24;12.4;;;;;;;0.83;41.51074;96174.05;;;;
2022/03/27 02:49:07;;;;;;;24;12.4;;;;;;;0.83;41.51074;96174.05;;;;
2022/03/27 02:50:07;;;;;;;24;12.4;;;;;;;0.83;41.51074;96174.05;;;;
2022/03/27 02:51:08;;;;;;;24;12.4;;;;;;;0.83;41.51074;96174.05;;;;
2022/03/27 02:52:08;;;;;;;24;12.4;;;;;;;0.83;41.51074;96174.05;;;;
2022/03/27 02:53:09;;;;;;;24;12.4;;;;;;;0.83;41.51074;96174.05;;;;
2022/03/27 02:54:09;;;;;;;24;12.4;;;;;;;0.83;41.51074;96174.05;;;;
2022/03/27 02:55:11;;;;;;;24;12.4;;;;;;;0.83;41.51074;96174.05;;;;
2022/03/27 02:56:12;;;;;;;25.5;12.9;;;;;;;0.52;41.95703;96176.29;;;;
2022/03/27 02:57:12;;;;;;;25.5;12.9;;;;;;;0.52;41.95703;96176.29;;;;
2022/03/27 02:58:13;;;;;;;25.5;12.9;;;;;;;0.52;41.95703;96176.29;;;;
2022/03/27 02:59:13;;;;;;;25.5;12.9;;;;;;;0.52;41.95703;96176.29;;;;
2022/03/27 03:00:14;;;;;;;25.5;12.9;;;;;;;0.52;41.95703;96176.29;;;;
2022/03/27 03:01:15;;;;;;;25.5;12.9;;;;;;;0.52;41.95703;96176.29;;;;
2022/03/27 03:02:16;;;;;;;25.5;12.9;;;;;;;0.52;41.95703;96176.29;;;;
2022/03/27 03:03:17;;;;;;;25.5;12.9;;;;;;;0.52;41.95703;96176.29;;;;
2022/03/27 03:04:18;;;;;;;25.5;12.9;;;;;;;0.52;41.95703;96176.29;;;;
2022/03/27 03:05:19;;;;;;;25.5;12.9;;;;;;;0.52;41.95703;96176.29;;;;
2022/03/27 03:06:20;;;;;;;23.4;12.1;;;;;;;0.38;42.16406;96183.86;;;;
2022/03/27 03:07:22;;;;;;;23.4;12.1;;;;;;;0.38;42.16406;96183.86;;;;
2022/03/27 03:08:23;;;;;;;23.4;12.1;;;;;;;0.38;42.16406;96183.86;;;;
2022/03/27 03:09:26;;;;;;;23.4;12.1;;;;;;;0.38;42.16406;96183.86;;;;
2022/03/27 03:10:27;;;;;;;23.4;12.1;;;;;;;0.38;42.16406;96183.86;;;;
2022/03/27 03:11:28;;;;;;;23.4;12.1;;;;;;;0.38;42.16406;96183.86;;;;
2022/03/27 03:12:28;;;;;;;23.4;12.1;;;;;;;0.38;42.16406;96183.86;;;;
2022/03/27 03:13:29;;;;;;;23.4;12.1;;;;;;;0.38;42.16406;96183.86;;;;
2022/03/27 03:14:30;;;;;;;23.4;12.1;;;;;;;0.38;42.16406;96183.86;;;;
2022/03/27 03:15:31;;;;;;;23.4;12.1;;;;;;;0.38;42.16406;96183.86;;;;
2022/03/27 03:16:32;;;;;;;23.4;12.1;;;;;;;0.38;42.16406;96183.86;;;;
2022/03/27 03:17:34;;;;;;;24.25;13.25;;;;;;;0.28;42.36426;96182.26;;;;
2022/03/27 03:18:36;;;;;;;24.25;13.25;;;;;;;0.28;42.36426;96182.26;;;;
2022/03/27 03:19:37;;;;;;;24.25;13.25;;;;;;;0.28;42.36426;96182.26;;;;
2022/03/27 03:20:38;;;;;;;24.25;13.25;;;;;;;0.28;42.36426;96182.26;;;;
2022/03/27 03:21:40;;;;;;;24.25;13.25;;;;;;;0.28;42.36426;96182.26;;;;
2022/03/27 03:22:40;;;;;;;24.25;13.25;;;;;;;0.28;42.36426;96182.26;;;;
2022/03/27 03:23:41;;;;;;;24.25;13.25;;;;;;;0.28;42.36426;96182.26;;;;
2022/03/27 03:24:42;;;;;;;24.25;13.25;;;;;;;0.28;42.36426;96182.26;;;;
2022/03/27 03:25:42;;;;;;;24.25;13.25;;;;;;;0.28;42.36426;96182.26;;;;
2022/03/27 03:26:43;;;;;;;24.25;13.25;;;;;;;0.28;42.36426;96182.26;;;;
2022/03/27 03:27:43;;;;;;;22.8;12.95;;;;;;;0.22;42.48633;96182.37;;;;
2022/03/27 03:28:44;;;;;;;22.8;12.95;;;;;;;0.22;42.48633;96182.37;;;;
2022/03/27 03:29:45;;;;;;;22.8;12.95;;;;;;;0.22;42.48633;96182.37;;;;
2022/03/27 03:30:46;;;;;;;22.8;12.95;;;;;;;0.22;42.48633;96182.37;;;;
2022/03/27 03:31:47;;;;;;;22.8;12.95;;;;;;;0.22;42.48633;96182.37;;;;
2022/03/27 03:32:48;;;;;;;22.8;12.95;;;;;;;0.22;42.48633;96182.37;;;;
2022/03/27 03:33:50;;;;;;;22.8;12.95;;;;;;;0.22;42.48633;96182.37;;;;
2022/03/27 03:34:51;;;;;;;22.8;12.95;;;;;;;0.22;42.48633;96182.37;;;;
2022/03/27 03:35:51;;;;;;;22.8;12.95;;;;;;;0.22;42.48633;96182.37;;;;
2022/03/27 03:36:52;;;;;;;22.8;12.95;;;;;;;0.22;42.48633;96182.37;;;;
2022/03/27 03:37:54;;;;;;;22.8;12.95;;;;;;;0.22;42.48633;96182.37;;;;
2022/03/27 03:38:54;;;;;;;22.7;12.55;;;;;;;0.11;42.69531;96178.19;;;;
2022/03/27 03:39:55;;;;;;;22.7;12.55;;;;;;;0.11;42.69531;96178.19;;;;
2022/03/27 03:40:56;;;;;;;22.7;12.55;;;;;;;0.11;42.69531;96178.19;;;;
2022/03/27 03:41:56;;;;;;;22.7;12.55;;;;;;;0.11;42.69531;96178.19;;;;
2022/03/27 03:42:57;;;;;;;22.7;12.55;;;;;;;0.11;42.69531;96178.19;;;;
2022/03/27 03:43:57;;;;;;;22.7;12.55;;;;;;;0.11;42.69531;96178.19;;;;
2022/03/27 03:44:58;;;;;;;22.7;12.55;;;;;;;0.11;42.69531;96178.19;;;;
2022/03/27 03:45:58;;;;;;;22.7;12.55;;;;;;;0.11;42.69531;96178.19;;;;
2022/03/27 03:46:59;;;;;;;22.7;12.55;;;;;;;0.11;42.69531;96178.19;;;;
2022/03/27 03:47:59;;;;;;;22.7;12.55;;;;;;;0.11;42.69531;96178.19;;;;
2022/03/27 03:49:00;;;;;;;32;17.6;;;;;;;-0.06;42.95313;96176.31;;;;
2022/03/27 03:50:01;;;;;;;32;17.6;;;;;;;-0.06;42.95313;96176.31;;;;
2022/03/27 03:51:01;;;;;;;32;17.6;;;;;;;-0.06;42.95313;96176.31;;;;
2022/03/27 03:52:02;;;;;;;32;17.6;;;;;;;-0.06;42.95313;96176.31;;;;
2022/03/27 03:53:03;;;;;;;32;17.6;;;;;;;-0.06;42.95313;96176.31;;;;
2022/03/27 03:54:05;;;;;;;32;17.6;;;;;;;-0.06;42.95313;96176.31;;;;
2022/03/27 03:55:06;;;;;;;32;17.6;;;;;;;-0.06;42.95313;96176.31;;;;
2022/03/27 03:56:07;;;;;;;32;17.6;;;;;;;-0.06;42.95313;96176.31;;;;
2022/03/27 03:57:08;;;;;;;32;17.6;;;;;;;-0.06;42.95313;96176.31;;;;
2022/03/27 03:58:09;;;;;;;32;17.6;;;;;;;-0.06;42.95313;96176.31;;;;
2022/03/27 03:59:09;;;;;;;32;17.6;;;;;;;-0.06;42.95313;96176.31;;;;
2022/03/27 04:00:10;;;;;;;35.54999;20.05;;;;;;;-0.18;43.20313;96173.58;;;;
2022/03/27 04:01:11;;;;;;;35.54999;20.05;;;;;;;-0.18;43.20313;96173.58;;;;
2022/03/27 04:02:13;;;;;;;35.54999;20.05;;;;;;;-0.18;43.20313;96173.58;;;;
2022/03/27 04:03:14;;;;;;;35.54999;20.05;;;;;;;-0.18;43.20313;96173.58;;;;
2022/03/27 04:04:14;;;;;;;35.54999;20.05;;;;;;;-0.18;43.20313;96173.58;;;;
2022/03/27 04:05:15;;;;;;;35.54999;20.05;;;;;;;-0.18;43.20313;96173.58;;;;
2022/03/27 04:06:16;;;;;;;35.54999;20.05;;;;;;;-0.18;43.20313;96173.58;;;;
2022/03/27 04:07:16;;;;;;;35.54999;20.05;;;;;;;-0.18;43.20313;96173.58;;;;
2022/03/27 04:08:18;;;;;;;35.54999;20.05;;;;;;;-0.18;43.20313;96173.58;;;;
2022/03/27 04:09:20;;;;;;;35.54999;20.05;;;;;;;-0.18;43.20313;96173.58;;;;
2022/03/27 04:10:20;;;;;;;35.54999;20.05;;;;;;;-0.18;43.20313;96173.58;;;;
2022/03/27 04:11:21;;;;;;;35.54999;20.05;;;;;;;-0.18;43.20313;96173.58;;;;
2022/03/27 04:12:21;;;;;;;35.54999;20.05;;;;;;;-0.18;43.20313;96173.58;;;;
2022/03/27 04:13:22;;;;;;;35.54999;20.05;;;;;;;-0.18;43.20313;96173.58;;;;
2022/03/27 04:14:22;;;;;;;35.54999;20.05;;;;;;;-0.18;43.20313;96173.58;;;;
2022/03/27 04:15:23;;;;;;;35.54999;20.05;;;;;;;-0.18;43.20313;96173.58;;;;
2022/03/27 04:16:23;;;;;;;35.54999;20.05;;;;;;;-0.18;43.20313;96173.58;;;;
2022/03/27 04:17:24;;;;;;;35.54999;20.05;;;;;;;-0.18;43.20313;96173.58;;;;
2022/03/27 04:18:25;;;;;;;35.54999;20.05;;;;;;;-0.18;43.20313;96173.58;;;;
2022/03/27 04:19:25;;;;;;;35.54999;20.05;;;;;;;-0.18;43.20313;96173.58;;;;
2022/03/27 04:20:26;;;;;;;35.54999;20.05;;;;;;;-0.18;43.20313;96173.58;;;;
2022/03/27 04:21:27;;;;;;;35.54999;20.05;;;;;;;-0.18;43.20313;96173.58;;;;
2022/03/27 04:22:27;;;;;;;35.54999;20.05;;;;;;;-0.18;43.20313;96173.58;;;;
2022/03/27 04:23:28;;;;;;;35.54999;20.05;;;;;;;-0.18;43.20313;96173.58;;;;
2022/03/27 04:24:28;;;;;;;35.54999;20.05;;;;;;;-0.18;43.20313;96173.58;;;;
2022/03/27 04:25:29;;;;;;;35.54999;20.05;;;;;;;-0.18;43.20313;96173.58;;;;
2022/03/27 04:26:29;;;;;;;35.54999;20.05;;;;;;;-0.18;43.20313;96173.58;;;;
2022/03/27 04:27:30;;;;;;;35.54999;20.05;;;;;;;-0.18;43.20313;96173.58;;;;
2022/03/27 04:28:31;;;;;;;35.54999;20.05;;;;;;;-0.18;43.20313;96173.58;;;;
2022/03/27 04:29:31;;;;;;;35.54999;20.05;;;;;;;-0.18;43.20313;96173.58;;;;
2022/03/27 04:30:32;;;;;;;35.54999;20.05;;;;;;;-0.18;43.20313;96173.58;;;;
2022/03/27 04:31:32;;;;;;;35.54999;20.05;;;;;;;-0.18;43.20313;96173.58;;;;
2022/03/27 04:32:34;;;;;;;22.35;12.4;;;;;;;-0.49;43.7832;96173.05;;;;
2022/03/27 04:33:34;;;;;;;22.35;12.4;;;;;;;-0.49;43.7832;96173.05;;;;
2022/03/27 04:34:35;;;;;;;22.35;12.4;;;;;;;-0.49;43.7832;96173.05;;;;
2022/03/27 04:35:35;;;;;;;22.35;12.4;;;;;;;-0.49;43.7832;96173.05;;;;
2022/03/27 04:36:37;;;;;;;22.35;12.4;;;;;;;-0.49;43.7832;96173.05;;;;
2022/03/27 04:37:37;;;;;;;22.35;12.4;;;;;;;-0.49;43.7832;96173.05;;;;
2022/03/27 04:38:39;;;;;;;22.35;12.4;;;;;;;-0.49;43.7832;96173.05;;;;
2022/03/27 04:39:40;;;;;;;22.35;12.4;;;;;;;-0.49;43.7832;96173.05;;;;
2022/03/27 04:40:40;;;;;;;22.35;12.4;;;;;;;-0.49;43.7832;96173.05;;;;
2022/03/27 04:41:41;;;;;;;22.35;12.4;;;;;;;-0.49;43.7832;96173.05;;;;
2022/03/27 04:42:41;;;;;;;24.45;13.2;;;;;;;-0.44;43.85059;96179.64;;;;
2022/03/27 04:43:46;;;;;;;24.45;13.2;;;;;;;-0.44;43.85059;96179.64;;;;
2022/03/27 04:44:47;;;;;;;24.45;13.2;;;;;;;-0.44;43.85059;96179.64;;;;
2022/03/27 04:45:47;;;;;;;24.45;13.2;;;;;;;-0.44;43.85059;96179.64;;;;
2022/03/27 04:46:48;;;;;;;24.45;13.2;;;;;;;-0.44;43.85059;96179.64;;;;
2022/03/27 04:47:48;;;;;;;24.45;13.2;;;;;;;-0.44;43.85059;96179.64;;;;
2022/03/27 04:48:49;;;;;;;24.45;13.2;;;;;;;-0.44;43.85059;96179.64;;;;
2022/03/27 04:49:50;;;;;;;24.45;13.2;;;;;;;-0.44;43.85059;96179.64;;;;
2022/03/27 04:50:51;;;;;;;24.45;13.2;;;;;;;-0.44;43.85059;96179.64;;;;
2022/03/27 04:51:52;;;;;;;24.45;13.2;;;;;;;-0.44;43.85059;96179.64;;;;
2022/03/27 04:52:52;;;;;;;24.45;13.2;;;;;;;-0.44;43.85059;96179.64;;;;
2022/03/27 04:53:53;;;;;;;27.5;12.6;;;;;;;-0.46;43.91211;96171.42;;;;
2022/03/27 04:54:53;;;;;;;27.5;12.6;;;;;;;-0.46;43.91211;96171.42;;;;
2022/03/27 04:55:54;;;;;;;27.5;12.6;;;;;;;-0.46;43.91211;96171.42;;;;
2022/03/27 04:56:54;;;;;;;27.5;12.6;;;;;;;-0.46;43.91211;96171.42;;;;
2022/03/27 04:57:55;;;;;;;27.5;12.6;;;;;;;-0.46;43.91211;96171.42;;;;
2022/03/27 04:58:55;;;;;;;27.5;12.6;;;;;;;-0.46;43.91211;96171.42;;;;
2022/03/27 04:59:56;;;;;;;27.5;12.6;;;;;;;-0.46;43.91211;96171.42;;;;
2022/03/27 05:00:57;;;;;;;27.5;12.6;;;;;;;-0.46;43.91211;96171.42;;;;
2022/03/27 05:01:58;;;;;;;27.5;12.6;;;;;;;-0.46;43.91211;96171.42;;;;
2022/03/27 05:02:58;;;;;;;27.5;12.6;;;;;;;-0.46;43.91211;96171.42;;;;
2022/03/27 05:03:59;;;;;;;26.4;13.4;;;;;;;-0.48;44.03613;96165.84;;;;
2022/03/27 05:04:59;;;;;;;26.4;13.4;;;;;;;-0.48;44.03613;96165.84;;;;
2022/03/27 05:06:00;;;;;;;26.4;13.4;;;;;;;-0.48;44.03613;96165.84;;;;
2022/03/27 05:07:00;;;;;;;26.4;13.4;;;;;;;-0.48;44.03613;96165.84;;;;
2022/03/27 05:08:01;;;;;;;26.4;13.4;;;;;;;-0.48;44.03613;96165.84;;;;
2022/03/27 05:09:01;;;;;;;26.4;13.4;;;;;;;-0.48;44.03613;96165.84;;;;
2022/03/27 05:10:02;;;;;;;26.4;13.4;;;;;;;-0.48;44.03613;96165.84;;;;
2022/03/27 05:11:04;;;;;;;26.4;13.4;;;;;;;-0.48;44.03613;96165.84;;;;
2022/03/27 05:12:04;;;;;;;26.4;13.4;;;;;;;-0.48;44.03613;96165.84;;;;
2022/03/27 05:13:06;;;;;;;26.4;13.4;;;;;;;-0.48;44.03613;96165.84;;;;
2022/03/27 05:14:08;;;;;;;26.4;13.4;;;;;;;-0.48;44.03613;96165.84;;;;
2022/03/27 05:15:09;;;;;;;24.7;13;;;;;;;-0.46;44.1543;96174.97;;;;
2022/03/27 05:16:10;;;;;;;24.7;13;;;;;;;-0.46;44.1543;96174.97;;;;
2022/03/27 05:17:10;;;;;;;24.7;13;;;;;;;-0.46;44.1543;96174.97;;;;
2022/03/27 05:18:11;;;;;;;24.7;13;;;;;;;-0.46;44.1543;96174.97;;;;
2022/03/27 05:19:11;;;;;;;24.7;13;;;;;;;-0.46;44.1543;96174.97;;;;
2022/03/27 05:20:12;;;;;;;24.7;13;;;;;;;-0.46;44.1543;96174.97;;;;
2022/03/27 05:21:12;;;;;;;24.7;13;;;;;;;-0.46;44.1543;96174.97;;;;
2022/03/27 05:22:13;;;;;;;24.7;13;;;;;;;-0.46;44.1543;96174.97;;;;
2022/03/27 05:23:15;;;;;;;24.7;13;;;;;;;-0.46;44.1543;96174.97;;;;
2022/03/27 05:24:16;;;;;;;24.7;13;;;;;;;-0.46;44.1543;96174.97;;;;
2022/03/27 05:25:16;;;;;;;22.75;12.9;;;;;;;-0.39;44.22363;96171.59;;;;
2022/03/27 05:26:17;;;;;;;22.75;12.9;;;;;;;-0.39;44.22363;96171.59;;;;
2022/03/27 05:27:18;;;;;;;22.75;12.9;;;;;;;-0.39;44.22363;96171.59;;;;
2022/03/27 05:28:19;;;;;;;22.75;12.9;;;;;;;-0.39;44.22363;96171.59;;;;
2022/03/27 05:29:21;;;;;;;22.75;12.9;;;;;;;-0.39;44.22363;96171.59;;;;
2022/03/27 05:30:21;;;;;;;22.75;12.9;;;;;;;-0.39;44.22363;96171.59;;;;
2022/03/27 05:31:23;;;;;;;22.75;12.9;;;;;;;-0.39;44.22363;96171.59;;;;
2022/03/27 05:32:24;;;;;;;22.75;12.9;;;;;;;-0.39;44.22363;96171.59;;;;
2022/03/27 05:33:24;;;;;;;22.75;12.9;;;;;;;-0.39;44.22363;96171.59;;;;
2022/03/27 05:34:25;;;;;;;22.75;12.9;;;;;;;-0.39;44.22363;96171.59;;;;
2022/03/27 05:35:26;;;;;;;22.75;12.9;;;;;;;-0.39;44.22363;96171.59;;;;
2022/03/27 05:36:26;;;;;;;27.7;13.15;;;;;;;-0.24;44.21875;96180.8;;;;
2022/03/27 05:37:27;;;;;;;27.7;13.15;;;;;;;-0.24;44.21875;96180.8;;;;
2022/03/27 05:38:27;;;;;;;27.7;13.15;;;;;;;-0.24;44.21875;96180.8;;;;
2022/03/27 05:39:28;;;;;;;27.7;13.15;;;;;;;-0.24;44.21875;96180.8;;;;
2022/03/27 05:40:28;;;;;;;27.7;13.15;;;;;;;-0.24;44.21875;96180.8;;;;
2022/03/27 05:41:29;;;;;;;27.7;13.15;;;;;;;-0.24;44.21875;96180.8;;;;
2022/03/27 05:42:29;;;;;;;27.7;13.15;;;;;;;-0.24;44.21875;96180.8;;;;
2022/03/27 05:43:30;;;;;;;27.7;13.15;;;;;;;-0.24;44.21875;96180.8;;;;
2022/03/27 05:44:30;;;;;;;27.7;13.15;;;;;;;-0.24;44.21875;96180.8;;;;
2022/03/27 05:45:31;;;;;;;27.7;13.15;;;;;;;-0.24;44.21875;96180.8;;;;
2022/03/27 05:46:31;;;;;;;22.25;12.4;;;;;;;-0.05;44.32324;96189.48;;;;
2022/03/27 05:47:32;;;;;;;22.25;12.4;;;;;;;-0.05;44.32324;96189.48;;;;